Ewen, MI

10:53 AM EST on February 10, 2016 (GMT -0500)
Ewen MI | | Change Station
CLOSE
Current Station
Personal Weather Station
Location: Ewen, MI
Elevation: 1181 ft
Nearby Weather Stations
Active Advisory: Lake Effect Snow Advisory Active Notice: Local Storm Report

Elev 1181 ft 46.52 °N, 89.27 °W | Updated 15 minutes ago

Overcast
Overcast
9.9 °F
Feels Like -2 °F
N
7.8
Wind Variable Wind from NNE

Today
High -- | Low -- °F
--% Chance of Precip.
Yesterday
High -- | Low -- °F
Precip. -- in
Pressure 29.96 in
Visibility 5.0 miles
Clouds Mostly Cloudy 2100 ft
Overcast 3100 ft
Windchill -2 °F
Dew Point 6 °F
Humidity 84%
Rainfall 0.00 in
Snow Depth Not available.
8:09 AM 6:14 PM
Waxing Crescent, 6% visible
METAR KLNL 101530Z AUTO 36009KT 5SM HZ BKN021 OVC031 M16/M19 A2996 RMK AO2 T11561195
Pressure 29.96 in
Visibility 5.0 miles
Clouds Mostly Cloudy 2100 ft
Overcast 3100 ft
Windchill -2 °F
Dew Point 6 °F
Humidity 84%
Rainfall 0.00 in
Snow Depth Not available.
8:09 AM 6:14 PM
Waxing Crescent, 6% visible
METAR KLNL 101530Z AUTO 36009KT 5SM HZ BKN021 OVC031 M16/M19 A2996 RMK AO2 T11561195

10-Day Weather Forecast

Almanac

Astronomy

Feb. 10, 2016 Rise Set
Actual Time
Civil Twilight
Nautical Twilight
Astronomical Twilight
Moon
Length of Visible Light
Length of Day
Tomorrow will be .
, % of the Moon is Illuminated

Today's Extremes

State Highs State Lows

Community

WunderPhotos

Upload Photos

1,891,863 photos uploaded!

WunderBlog® & News

Nearby

Air Quality

  Air Quality AQ Index Pollutant
Not available.

Snow Depth

Station Depth Elevation

Earthquake Activity

City Distance Mag. Time & Date
Minimum magnitude displayed is 2.5.

Coastal Water Temperatures

Place Temperature

Stations

Nearby Weather Stations

Station Location Temp. Windchill Dew Point Humidity Wind Precip. Elev Updated Type
                   

Watches & Warnings

Lake Effect Snow Advisory
Issued: 9:48 AM CST Feb. 10, 2016 – National Weather Service

... Lake effect Snow Advisory remains in effect until 7 PM EST
/6 PM CST/ this evening...

Hazardous weather...

* moderate snow showers will continue through this afternoon
   before diminishing late.

* Expect additional snow accumulations of 1 to 3 inches from
   Ironwood and Wakefield to Bergland... White Pine and Mass City
   through this afternoon. Farther inland... an additional inch will
   accumulate from Watersmeet and Marenisco to Bruce Crossing.

* Expect some areas of blowing snow and sharply reduced
   visibility through this afternoon near Lake Superior.

Impacts...

* roads will be snow covered and slippery.

Precautionary/preparedness actions...

* a lake effect Snow Advisory Means Lake effect snow is
   forecast that will make travel difficult in some areas.

* Prepare... plan... and stay informed. Visit www.Weather.Gov/MQT